N1068X KTTA-KUZA
Flight info
| Callsign | N1068X |
|---|---|
| Flight time | 0h 57m |
| Altitude | 6000 |
| Route | DIRECT |
| Aircraft | M20P/L-VGD/C |
Departure
| Time | 2026-05-08 00:30 |
|---|---|
| Airport | Raleigh Executive Jetport (KTTA) |
Arrival
| Time | 2026-05-08 01:27 |
|---|---|
| Airport | Rock Hill - York County Airport (KUZA) |
| Time | Latitude | Longitude | Altitude | Speed | Heading |
|---|---|---|---|---|---|
| 2026-05-08 00:24 | 35.57532 | -79.10650 | 249 ft | 0 kts | 121° |
| 2026-05-08 00:27 | 35.57513 | -79.10680 | 249 ft | 6 kts | 226° |
| 2026-05-08 00:28 | 35.57466 | -79.10681 | 250 ft | 11 kts | 109° |
| 2026-05-08 00:28 | 35.57443 | -79.10611 | 251 ft | 0 kts | 134° |
| 2026-05-08 00:29 | 35.57439 | -79.10600 | 251 ft | 7 kts | 112° |
| 2026-05-08 00:29 | 35.57438 | -79.10512 | 252 ft | 13 kts | 22° |
| 2026-05-08 00:29 | 35.57668 | -79.10404 | 254 ft | 58 kts | 19° |
| 2026-05-08 00:30 | 35.58127 | -79.10213 | 417 ft | 69 kts | 13° |
| 2026-05-08 00:30 | 35.58668 | -79.10055 | 524 ft | 94 kts | 29° |
| 2026-05-08 00:30 | 35.59238 | -79.09673 | 880 ft | 93 kts | 27° |
| 2026-05-08 00:30 | 35.59865 | -79.09274 | 1112 ft | 107 kts | 26° |
| 2026-05-08 00:31 | 35.60569 | -79.09423 | 1462 ft | 113 kts | 327° |
| 2026-05-08 00:31 | 35.60988 | -79.10268 | 1758 ft | 117 kts | 307° |
| 2026-05-08 00:31 | 35.61448 | -79.11056 | 2038 ft | 113 kts | 316° |
| 2026-05-08 00:31 | 35.61852 | -79.11847 | 2341 ft | 111 kts | 301° |
| 2026-05-08 00:32 | 35.62040 | -79.12776 | 2596 ft | 115 kts | 287° |
| 2026-05-08 00:32 | 35.61872 | -79.13810 | 2735 ft | 135 kts | 253° |
| 2026-05-08 00:32 | 35.61412 | -79.14776 | 3097 ft | 124 kts | 249° |
| 2026-05-08 00:32 | 35.61040 | -79.15764 | 3171 ft | 132 kts | 259° |
| 2026-05-08 00:33 | 35.60722 | -79.16802 | 3372 ft | 128 kts | 261° |
| 2026-05-08 00:33 | 35.60406 | -79.17842 | 3566 ft | 131 kts | 257° |
| 2026-05-08 00:33 | 35.60066 | -79.18847 | 3837 ft | 126 kts | 257° |
| 2026-05-08 00:33 | 35.59749 | -79.19841 | 4115 ft | 124 kts | 253° |
| 2026-05-08 00:34 | 35.59314 | -79.20769 | 4331 ft | 129 kts | 238° |
| 2026-05-08 00:34 | 35.58764 | -79.21646 | 4506 ft | 129 kts | 249° |
| 2026-05-08 00:34 | 35.58492 | -79.22674 | 4767 ft | 122 kts | 262° |
| 2026-05-08 00:34 | 35.58355 | -79.23661 | 5073 ft | 114 kts | 266° |
| 2026-05-08 00:35 | 35.58227 | -79.24646 | 5250 ft | 120 kts | 263° |
| 2026-05-08 00:35 | 35.58027 | -79.25643 | 5465 ft | 118 kts | 259° |
| 2026-05-08 00:35 | 35.57778 | -79.26575 | 5726 ft | 114 kts | 252° |
| 2026-05-08 00:35 | 35.57466 | -79.27501 | 5870 ft | 120 kts | 249° |
| 2026-05-08 00:36 | 35.57115 | -79.28424 | 6048 ft | 121 kts | 250° |
| 2026-05-08 00:36 | 35.56734 | -79.29402 | 5982 ft | 131 kts | 251° |
| 2026-05-08 00:36 | 35.56423 | -79.30448 | 6026 ft | 131 kts | 253° |
| 2026-05-08 00:36 | 35.56099 | -79.31492 | 6085 ft | 130 kts | 252° |
| 2026-05-08 00:37 | 35.55777 | -79.32550 | 6067 ft | 135 kts | 250° |
| 2026-05-08 00:37 | 35.55395 | -79.33618 | 6038 ft | 138 kts | 251° |
| 2026-05-08 00:37 | 35.55039 | -79.34704 | 6012 ft | 140 kts | 251° |
| 2026-05-08 00:38 | 35.54331 | -79.36924 | 6032 ft | 139 kts | 252° |
| 2026-05-08 00:38 | 35.53978 | -79.38028 | 6031 ft | 139 kts | 252° |
| 2026-05-08 00:38 | 35.53627 | -79.39128 | 6038 ft | 138 kts | 252° |
| 2026-05-08 00:38 | 35.53272 | -79.40235 | 6033 ft | 139 kts | 251° |
| 2026-05-08 00:39 | 35.52916 | -79.41346 | 6031 ft | 140 kts | 251° |
| 2026-05-08 00:39 | 35.52559 | -79.42461 | 6036 ft | 141 kts | 251° |
| 2026-05-08 00:39 | 35.52200 | -79.43580 | 6034 ft | 141 kts | 251° |
| 2026-05-08 00:39 | 35.51844 | -79.44690 | 6033 ft | 141 kts | 251° |
| 2026-05-08 00:40 | 35.51484 | -79.45814 | 6032 ft | 142 kts | 251° |
| 2026-05-08 00:40 | 35.51122 | -79.46940 | 6039 ft | 142 kts | 251° |
| 2026-05-08 00:40 | 35.50760 | -79.48067 | 6038 ft | 142 kts | 251° |
| 2026-05-08 00:40 | 35.50399 | -79.49192 | 6038 ft | 142 kts | 251° |
| 2026-05-08 00:41 | 35.50037 | -79.50317 | 6036 ft | 142 kts | 251° |
| 2026-05-08 00:41 | 35.49674 | -79.51448 | 6036 ft | 142 kts | 251° |
| 2026-05-08 00:41 | 35.49310 | -79.52579 | 6035 ft | 142 kts | 251° |
| 2026-05-08 00:41 | 35.48947 | -79.53710 | 6030 ft | 142 kts | 251° |
| 2026-05-08 00:42 | 35.48588 | -79.54824 | 6035 ft | 142 kts | 251° |
| 2026-05-08 00:42 | 35.48225 | -79.55952 | 6032 ft | 142 kts | 251° |
| 2026-05-08 00:42 | 35.47862 | -79.57079 | 6028 ft | 142 kts | 251° |
| 2026-05-08 00:42 | 35.47498 | -79.58207 | 6032 ft | 142 kts | 251° |
| 2026-05-08 00:43 | 35.47136 | -79.59331 | 6028 ft | 142 kts | 251° |
| 2026-05-08 00:43 | 35.46774 | -79.60454 | 6024 ft | 141 kts | 251° |
| 2026-05-08 00:43 | 35.46414 | -79.61570 | 6025 ft | 141 kts | 251° |
| 2026-05-08 00:43 | 35.46053 | -79.62687 | 6021 ft | 141 kts | 251° |
| 2026-05-08 00:44 | 35.45693 | -79.63805 | 6026 ft | 141 kts | 251° |
| 2026-05-08 00:44 | 35.45332 | -79.64925 | 6025 ft | 141 kts | 251° |
| 2026-05-08 00:44 | 35.44971 | -79.66041 | 6026 ft | 141 kts | 251° |
| 2026-05-08 00:44 | 35.44611 | -79.67156 | 6028 ft | 141 kts | 251° |
| 2026-05-08 00:45 | 35.44250 | -79.68272 | 6025 ft | 141 kts | 251° |
| 2026-05-08 00:45 | 35.43889 | -79.69386 | 6023 ft | 140 kts | 251° |
| 2026-05-08 00:45 | 35.43536 | -79.70478 | 6023 ft | 139 kts | 251° |
| 2026-05-08 00:45 | 35.43179 | -79.71580 | 6022 ft | 139 kts | 251° |
| 2026-05-08 00:46 | 35.42823 | -79.72682 | 6027 ft | 139 kts | 251° |
| 2026-05-08 00:46 | 35.42464 | -79.73790 | 6025 ft | 140 kts | 251° |
| 2026-05-08 00:46 | 35.42107 | -79.74890 | 6030 ft | 137 kts | 251° |
| 2026-05-08 00:46 | 35.41757 | -79.75971 | 6026 ft | 136 kts | 251° |
| 2026-05-08 00:47 | 35.41407 | -79.77052 | 6026 ft | 137 kts | 251° |
| 2026-05-08 00:47 | 35.41053 | -79.78140 | 6027 ft | 137 kts | 251° |
| 2026-05-08 00:47 | 35.40702 | -79.79223 | 6029 ft | 137 kts | 252° |
| 2026-05-08 00:47 | 35.40351 | -79.80307 | 6031 ft | 137 kts | 252° |
| 2026-05-08 00:48 | 35.39998 | -79.81394 | 6028 ft | 138 kts | 251° |
| 2026-05-08 00:48 | 35.39641 | -79.82492 | 6026 ft | 138 kts | 251° |
| 2026-05-08 00:48 | 35.39286 | -79.83582 | 6056 ft | 137 kts | 251° |
| 2026-05-08 00:48 | 35.38934 | -79.84667 | 6057 ft | 137 kts | 252° |
| 2026-05-08 00:49 | 35.38578 | -79.85763 | 6061 ft | 139 kts | 251° |
| 2026-05-08 00:49 | 35.38225 | -79.86852 | 6064 ft | 140 kts | 251° |
| 2026-05-08 00:49 | 35.37866 | -79.87950 | 6062 ft | 138 kts | 251° |
| 2026-05-08 00:49 | 35.37527 | -79.89039 | 6064 ft | 136 kts | 253° |
| 2026-05-08 00:50 | 35.37201 | -79.90129 | 6066 ft | 137 kts | 252° |
| 2026-05-08 00:50 | 35.36856 | -79.91218 | 6069 ft | 137 kts | 252° |
| 2026-05-08 00:50 | 35.36617 | -79.91956 | 6066 ft | 138 kts | 251° |
| 2026-05-08 00:50 | 35.36261 | -79.93050 | 6071 ft | 138 kts | 251° |
| 2026-05-08 00:51 | 35.35909 | -79.94130 | 6070 ft | 139 kts | 251° |
| 2026-05-08 00:51 | 35.35550 | -79.95231 | 6074 ft | 139 kts | 251° |
| 2026-05-08 00:51 | 35.35189 | -79.96335 | 6075 ft | 140 kts | 251° |
| 2026-05-08 00:51 | 35.34829 | -79.97437 | 6077 ft | 139 kts | 251° |
| 2026-05-08 00:52 | 35.34470 | -79.98533 | 6079 ft | 138 kts | 251° |
| 2026-05-08 00:52 | 35.34110 | -79.99632 | 6084 ft | 139 kts | 251° |
| 2026-05-08 00:52 | 35.33749 | -80.00735 | 6087 ft | 140 kts | 251° |
| 2026-05-08 00:52 | 35.33387 | -80.01843 | 6084 ft | 140 kts | 251° |
| 2026-05-08 00:53 | 35.33027 | -80.02943 | 6088 ft | 139 kts | 251° |
| 2026-05-08 00:53 | 35.32665 | -80.04046 | 6087 ft | 140 kts | 251° |
| 2026-05-08 00:53 | 35.32303 | -80.05152 | 6089 ft | 140 kts | 251° |
| 2026-05-08 00:53 | 35.31943 | -80.06247 | 6088 ft | 140 kts | 251° |
| 2026-05-08 00:54 | 35.31582 | -80.07351 | 6088 ft | 139 kts | 251° |
| 2026-05-08 00:54 | 35.31221 | -80.08450 | 6084 ft | 138 kts | 251° |
| 2026-05-08 00:54 | 35.30862 | -80.09542 | 6086 ft | 138 kts | 251° |
| 2026-05-08 00:54 | 35.30507 | -80.10626 | 6089 ft | 136 kts | 250° |
| 2026-05-08 00:55 | 35.30152 | -80.11701 | 6088 ft | 137 kts | 251° |
| 2026-05-08 00:55 | 35.29796 | -80.12788 | 6091 ft | 137 kts | 251° |
| 2026-05-08 00:55 | 35.29445 | -80.13856 | 6082 ft | 136 kts | 251° |
| 2026-05-08 00:55 | 35.29094 | -80.14923 | 6093 ft | 135 kts | 251° |
| 2026-05-08 00:56 | 35.28742 | -80.15993 | 6092 ft | 136 kts | 251° |
| 2026-05-08 00:56 | 35.28386 | -80.17073 | 6088 ft | 137 kts | 251° |
| 2026-05-08 00:56 | 35.28031 | -80.18155 | 6084 ft | 136 kts | 251° |
| 2026-05-08 00:56 | 35.27676 | -80.19233 | 6089 ft | 137 kts | 251° |
| 2026-05-08 00:57 | 35.27319 | -80.20316 | 6087 ft | 138 kts | 251° |
| 2026-05-08 00:57 | 35.26959 | -80.21407 | 6085 ft | 138 kts | 251° |
| 2026-05-08 00:57 | 35.26600 | -80.22497 | 6083 ft | 138 kts | 251° |
| 2026-05-08 00:57 | 35.26244 | -80.23577 | 6077 ft | 139 kts | 251° |
| 2026-05-08 00:58 | 35.25883 | -80.24670 | 6079 ft | 139 kts | 251° |
| 2026-05-08 00:58 | 35.25522 | -80.25766 | 6079 ft | 138 kts | 251° |
| 2026-05-08 00:58 | 35.25160 | -80.26861 | 6080 ft | 138 kts | 251° |
| 2026-05-08 00:58 | 35.24798 | -80.27956 | 6078 ft | 139 kts | 251° |
| 2026-05-08 00:59 | 35.24435 | -80.29054 | 6069 ft | 139 kts | 251° |
| 2026-05-08 00:59 | 35.24073 | -80.30150 | 6071 ft | 139 kts | 251° |
| 2026-05-08 00:59 | 35.23709 | -80.31251 | 6071 ft | 139 kts | 251° |
| 2026-05-08 00:59 | 35.23345 | -80.32352 | 6066 ft | 139 kts | 251° |
| 2026-05-08 01:00 | 35.22982 | -80.33450 | 6061 ft | 139 kts | 251° |
| 2026-05-08 01:00 | 35.22619 | -80.34545 | 6060 ft | 139 kts | 251° |
| 2026-05-08 01:00 | 35.22256 | -80.35643 | 6060 ft | 139 kts | 251° |
| 2026-05-08 01:00 | 35.21897 | -80.36728 | 6062 ft | 140 kts | 251° |
| 2026-05-08 01:01 | 35.21532 | -80.37830 | 6055 ft | 140 kts | 251° |
| 2026-05-08 01:01 | 35.21164 | -80.38937 | 6053 ft | 140 kts | 251° |
| 2026-05-08 01:01 | 35.20797 | -80.40044 | 6049 ft | 141 kts | 251° |
| 2026-05-08 01:01 | 35.20430 | -80.41153 | 6053 ft | 140 kts | 251° |
| 2026-05-08 01:02 | 35.20063 | -80.42259 | 6053 ft | 140 kts | 251° |
| 2026-05-08 01:02 | 35.19696 | -80.43363 | 6054 ft | 140 kts | 251° |
| 2026-05-08 01:02 | 35.19330 | -80.44466 | 6062 ft | 140 kts | 251° |
| 2026-05-08 01:02 | 35.18961 | -80.45579 | 6062 ft | 141 kts | 251° |
| 2026-05-08 01:03 | 35.18591 | -80.46689 | 6061 ft | 141 kts | 251° |
| 2026-05-08 01:03 | 35.18222 | -80.47799 | 6065 ft | 141 kts | 251° |
| 2026-05-08 01:03 | 35.17855 | -80.48901 | 6067 ft | 140 kts | 251° |
| 2026-05-08 01:03 | 35.17489 | -80.50003 | 6062 ft | 139 kts | 251° |
| 2026-05-08 01:04 | 35.17122 | -80.51105 | 6066 ft | 141 kts | 251° |
| 2026-05-08 01:04 | 35.16753 | -80.52216 | 6071 ft | 141 kts | 251° |
| 2026-05-08 01:04 | 35.16382 | -80.53329 | 6069 ft | 141 kts | 251° |
| 2026-05-08 01:04 | 35.16019 | -80.54418 | 6069 ft | 140 kts | 251° |
| 2026-05-08 01:05 | 35.15654 | -80.55513 | 6064 ft | 139 kts | 251° |
| 2026-05-08 01:05 | 35.15287 | -80.56614 | 6066 ft | 139 kts | 251° |
| 2026-05-08 01:05 | 35.14921 | -80.57712 | 6070 ft | 140 kts | 251° |
| 2026-05-08 01:05 | 35.14553 | -80.58816 | 6071 ft | 140 kts | 251° |
| 2026-05-08 01:06 | 35.14039 | -80.59815 | 6065 ft | 145 kts | 223° |
| 2026-05-08 01:06 | 35.13122 | -80.60395 | 6024 ft | 151 kts | 212° |
| 2026-05-08 01:06 | 35.12164 | -80.60948 | 5899 ft | 153 kts | 212° |
| 2026-05-08 01:06 | 35.11201 | -80.61512 | 5772 ft | 155 kts | 212° |
| 2026-05-08 01:07 | 35.10227 | -80.62085 | 5646 ft | 156 kts | 212° |
| 2026-05-08 01:07 | 35.09246 | -80.62666 | 5520 ft | 157 kts | 211° |
| 2026-05-08 01:07 | 35.08260 | -80.63254 | 5395 ft | 158 kts | 212° |
| 2026-05-08 01:07 | 35.07268 | -80.63846 | 5274 ft | 159 kts | 212° |
| 2026-05-08 01:08 | 35.06269 | -80.64439 | 5152 ft | 160 kts | 212° |
| 2026-05-08 01:08 | 35.05261 | -80.65034 | 5024 ft | 162 kts | 212° |
| 2026-05-08 01:08 | 35.04242 | -80.65639 | 4901 ft | 163 kts | 212° |
| 2026-05-08 01:08 | 35.03222 | -80.66251 | 4778 ft | 163 kts | 211° |
| 2026-05-08 01:09 | 35.02201 | -80.66867 | 4648 ft | 164 kts | 212° |
| 2026-05-08 01:09 | 35.01178 | -80.67483 | 4518 ft | 164 kts | 211° |
| 2026-05-08 01:09 | 35.00154 | -80.68109 | 4389 ft | 164 kts | 212° |
| 2026-05-08 01:09 | 34.99127 | -80.68740 | 4262 ft | 166 kts | 212° |
| 2026-05-08 01:10 | 34.98097 | -80.69379 | 4141 ft | 167 kts | 212° |
| 2026-05-08 01:10 | 34.97069 | -80.70024 | 4090 ft | 164 kts | 212° |
| 2026-05-08 01:10 | 34.96074 | -80.70661 | 4088 ft | 159 kts | 212° |
| 2026-05-08 01:10 | 34.95115 | -80.71262 | 4079 ft | 155 kts | 211° |
| 2026-05-08 01:11 | 34.94161 | -80.71862 | 4074 ft | 153 kts | 212° |
| 2026-05-08 01:11 | 34.93215 | -80.72450 | 4073 ft | 151 kts | 212° |
| 2026-05-08 01:11 | 34.92280 | -80.73030 | 4065 ft | 150 kts | 212° |
| 2026-05-08 01:11 | 34.91351 | -80.73600 | 4067 ft | 149 kts | 211° |
| 2026-05-08 01:12 | 34.90429 | -80.74173 | 4062 ft | 148 kts | 212° |
| 2026-05-08 01:12 | 34.89517 | -80.74726 | 4066 ft | 146 kts | 211° |
| 2026-05-08 01:12 | 34.88614 | -80.75279 | 4060 ft | 144 kts | 212° |
| 2026-05-08 01:12 | 34.87725 | -80.75817 | 4055 ft | 142 kts | 211° |
| 2026-05-08 01:13 | 34.86841 | -80.76350 | 4057 ft | 142 kts | 212° |
| 2026-05-08 01:13 | 34.86134 | -80.77095 | 4055 ft | 131 kts | 243° |
| 2026-05-08 01:13 | 34.85615 | -80.78029 | 3973 ft | 138 kts | 242° |
| 2026-05-08 01:13 | 34.85061 | -80.79010 | 3857 ft | 142 kts | 243° |
| 2026-05-08 01:14 | 34.84506 | -80.80035 | 3739 ft | 147 kts | 243° |
| 2026-05-08 01:14 | 34.83935 | -80.81087 | 3622 ft | 150 kts | 243° |
| 2026-05-08 01:14 | 34.83362 | -80.82149 | 3501 ft | 153 kts | 243° |
| 2026-05-08 01:14 | 34.82775 | -80.83240 | 3384 ft | 155 kts | 243° |
| 2026-05-08 01:15 | 34.82365 | -80.84419 | 3261 ft | 151 kts | 263° |
| 2026-05-08 01:15 | 34.82115 | -80.85667 | 3139 ft | 153 kts | 263° |
| 2026-05-08 01:15 | 34.81860 | -80.86923 | 3078 ft | 150 kts | 263° |
| 2026-05-08 01:15 | 34.81599 | -80.88137 | 3070 ft | 147 kts | 263° |
| 2026-05-08 01:16 | 34.81339 | -80.89313 | 3066 ft | 142 kts | 262° |
| 2026-05-08 01:16 | 34.81094 | -80.90465 | 3060 ft | 140 kts | 263° |
| 2026-05-08 01:16 | 34.80842 | -80.91602 | 3064 ft | 138 kts | 263° |
| 2026-05-08 01:16 | 34.80583 | -80.92716 | 3063 ft | 137 kts | 263° |
| 2026-05-08 01:17 | 34.80332 | -80.93827 | 3061 ft | 135 kts | 263° |
| 2026-05-08 01:17 | 34.80096 | -80.94923 | 3059 ft | 134 kts | 263° |
| 2026-05-08 01:17 | 34.79879 | -80.96032 | 3045 ft | 133 kts | 269° |
| 2026-05-08 01:17 | 34.79688 | -80.97142 | 3067 ft | 135 kts | 264° |
| 2026-05-08 01:18 | 34.79455 | -80.98249 | 3053 ft | 136 kts | 263° |
| 2026-05-08 01:18 | 34.79208 | -80.99346 | 3076 ft | 134 kts | 262° |
| 2026-05-08 01:18 | 34.78962 | -81.00436 | 3059 ft | 134 kts | 263° |
| 2026-05-08 01:18 | 34.78712 | -81.01526 | 3050 ft | 134 kts | 262° |
| 2026-05-08 01:19 | 34.78488 | -81.02616 | 3051 ft | 131 kts | 264° |
| 2026-05-08 01:19 | 34.78535 | -81.03635 | 3047 ft | 118 kts | 302° |
| 2026-05-08 01:19 | 34.79005 | -81.04415 | 3059 ft | 111 kts | 322° |
| 2026-05-08 01:19 | 34.79554 | -81.05077 | 3070 ft | 112 kts | 322° |
| 2026-05-08 01:20 | 34.80109 | -81.05751 | 3056 ft | 113 kts | 323° |
| 2026-05-08 01:20 | 34.80650 | -81.06421 | 3129 ft | 109 kts | 321° |
| 2026-05-08 01:20 | 34.81191 | -81.07076 | 3098 ft | 112 kts | 323° |
| 2026-05-08 01:20 | 34.81747 | -81.07749 | 3089 ft | 111 kts | 326° |
| 2026-05-08 01:21 | 34.82429 | -81.08158 | 3076 ft | 109 kts | 344° |
| 2026-05-08 01:21 | 34.83171 | -81.08471 | 2966 ft | 117 kts | 343° |
| 2026-05-08 01:21 | 34.83959 | -81.08719 | 2870 ft | 118 kts | 352° |
| 2026-05-08 01:21 | 34.84759 | -81.08854 | 2812 ft | 116 kts | 357° |
| 2026-05-08 01:22 | 34.85568 | -81.08923 | 2712 ft | 117 kts | 4° |
| 2026-05-08 01:22 | 34.86383 | -81.08822 | 2604 ft | 117 kts | 9° |
| 2026-05-08 01:22 | 34.87121 | -81.08555 | 2681 ft | 104 kts | 17° |
| 2026-05-08 01:22 | 34.87815 | -81.08342 | 2610 ft | 105 kts | 14° |
| 2026-05-08 01:23 | 34.88500 | -81.08148 | 2652 ft | 97 kts | 11° |
| 2026-05-08 01:23 | 34.89162 | -81.08019 | 2569 ft | 105 kts | 7° |
| 2026-05-08 01:23 | 34.89874 | -81.07924 | 2452 ft | 100 kts | 7° |
| 2026-05-08 01:23 | 34.90522 | -81.07807 | 2144 ft | 91 kts | 14° |
| 2026-05-08 01:24 | 34.91113 | -81.07607 | 1939 ft | 88 kts | 17° |
| 2026-05-08 01:24 | 34.91705 | -81.07375 | 1744 ft | 86 kts | 14° |
| 2026-05-08 01:24 | 34.92270 | -81.07293 | 1654 ft | 78 kts | 6° |
| 2026-05-08 01:24 | 34.92804 | -81.07238 | 1552 ft | 76 kts | 13° |
| 2026-05-08 01:25 | 34.93289 | -81.07091 | 1562 ft | 65 kts | 16° |
| 2026-05-08 01:25 | 34.93740 | -81.06936 | 1480 ft | 70 kts | 16° |
| 2026-05-08 01:25 | 34.94224 | -81.06833 | 1422 ft | 72 kts | 13° |
| 2026-05-08 01:25 | 34.94749 | -81.06716 | 1341 ft | 79 kts | 14° |
| 2026-05-08 01:26 | 34.95271 | -81.06553 | 1343 ft | 81 kts | 14° |
| 2026-05-08 01:26 | 34.95851 | -81.06426 | 1185 ft | 86 kts | 11° |
| 2026-05-08 01:26 | 34.96443 | -81.06294 | 1020 ft | 88 kts | 13° |
| 2026-05-08 01:26 | 34.97016 | -81.06142 | 971 ft | 82 kts | 12° |
| 2026-05-08 01:27 | 34.97551 | -81.06020 | 837 ft | 67 kts | 15° |
| 2026-05-08 01:27 | 34.97979 | -81.05913 | 713 ft | 62 kts | 11° |
| 2026-05-08 01:27 | 34.98354 | -81.05824 | 687 ft | 46 kts | 12° |
| 2026-05-08 01:27 | 34.98630 | -81.05758 | 683 ft | 35 kts | 9° |
| 2026-05-08 01:28 | 34.98743 | -81.05715 | 685 ft | 12 kts | 48° |
| 2026-05-08 01:28 | 34.98745 | -81.05607 | 678 ft | 15 kts | 92° |
| 2026-05-08 01:28 | 34.98743 | -81.05578 | 678 ft | 0 kts | 94° |
| 2026-05-08 01:29 | 34.98742 | -81.05554 | 684 ft | 10 kts | 93° |
| 2026-05-08 01:30 | 34.98745 | -81.05441 | 683 ft | 12 kts | 32° |
| 2026-05-08 01:30 | 34.98772 | -81.05438 | 683 ft | 0 kts | 275° |